Time;durP1;ratioP1;P1;durP2;ratioP2;P2;SDS_P1;SDS_P2;PMS_P1;PMS_P2;Temp;Humidity;BMP_temperature;BMP_pressure;BME280_temperature;BME280_humidity;BME280_pressure;Samples;Min_cycle;Max_cycle;Signal;HPM_P1;HPM_P2
2023/06/30 00:01:30;;;;;;;4.57;3.83;;;20.90;99.90;;;;;;5061101;28;20271;-79
2023/06/30 00:03:57;;;;;;;4.50;3.90;;;20.90;99.90;;;;;;5064875;28;20202;-78
2023/06/30 00:06:26;;;;;;;7.90;6.50;;;20.80;99.90;;;;;;5060909;28;20206;-77
2023/06/30 00:08:53;;;;;;;7.83;7.07;;;20.80;99.90;;;;;;5069930;28;20642;-78
2023/06/30 00:11:23;;;;;;;5.33;4.83;;;20.80;99.90;;;;;;5064982;28;20217;-78
2023/06/30 00:13:52;;;;;;;6.13;4.80;;;20.80;99.90;;;;;;5064350;28;20196;-77
2023/06/30 00:16:19;;;;;;;7.20;6.50;;;20.80;99.90;;;;;;5071055;28;20669;-78
2023/06/30 00:18:46;;;;;;;6.63;5.00;;;20.80;99.90;;;;;;5061243;28;20198;-77
2023/06/30 00:21:12;;;;;;;6.57;5.10;;;20.80;99.90;;;;;;5065526;28;20198;-78
2023/06/30 00:23:41;;;;;;;7.43;5.00;;;20.80;99.90;;;;;;5068982;28;20229;-76
2023/06/30 00:26:07;;;;;;;8.87;5.73;;;20.80;99.90;;;;;;5063795;28;20253;-78
2023/06/30 00:28:34;;;;;;;6.87;6.17;;;20.70;99.90;;;;;;5058521;28;20200;-77
2023/06/30 00:31:01;;;;;;;7.07;6.47;;;20.70;99.90;;;;;;5066204;28;20206;-80
2023/06/30 00:33:28;;;;;;;6.47;5.77;;;20.60;99.90;;;;;;5073577;28;20214;-77
2023/06/30 00:35:55;;;;;;;8.47;7.53;;;20.60;99.90;;;;;;5066572;28;20248;-78
2023/06/30 00:38:21;;;;;;;6.87;6.27;;;20.60;99.90;;;;;;5045733;28;20233;-78
2023/06/30 00:40:50;;;;;;;7.27;6.60;;;20.60;99.90;;;;;;5053408;28;20206;-79
2023/06/30 00:43:17;;;;;;;7.80;7.10;;;20.60;99.90;;;;;;5059959;28;20242;-76
2023/06/30 00:45:46;;;;;;;7.13;6.53;;;20.50;99.90;;;;;;5066909;28;20279;-77
2023/06/30 00:48:13;;;;;;;5.77;5.17;;;20.50;99.90;;;;;;5068581;28;20552;-78
2023/06/30 00:50:40;;;;;;;6.33;5.73;;;20.40;99.90;;;;;;5072556;28;20202;-79
2023/06/30 00:53:07;;;;;;;5.43;4.10;;;20.40;99.90;;;;;;5073066;28;20785;-77
2023/06/30 00:55:34;;;;;;;4.83;4.37;;;20.40;99.90;;;;;;5071471;28;20214;-78
2023/06/30 00:58:02;;;;;;;5.93;4.43;;;20.40;99.90;;;;;;5070721;28;20194;-79
2023/06/30 01:00:29;;;;;;;4.90;3.53;;;20.40;99.90;;;;;;5068645;28;20289;-77
2023/06/30 01:03:06;;;;;;;4.17;3.77;;;20.40;99.90;;;;;;5056569;28;20207;-78
2023/06/30 01:05:40;;;;;;;4.60;4.10;;;20.40;99.90;;;;;;5054605;28;20204;-79
2023/06/30 01:08:16;;;;;;;5.10;4.27;;;20.40;99.90;;;;;;5067997;28;20258;-78
2023/06/30 01:10:44;;;;;;;4.47;3.77;;;20.30;99.90;;;;;;5070211;28;20199;-77
2023/06/30 01:13:17;;;;;;;7.57;6.87;;;20.30;99.90;;;;;;5070984;28;20691;-76
2023/06/30 01:15:45;;;;;;;6.80;6.20;;;20.30;99.90;;;;;;5062755;28;20263;-77
2023/06/30 01:18:13;;;;;;;7.57;6.30;;;20.20;99.90;;;;;;5074364;28;20198;-78
2023/06/30 01:20:41;;;;;;;8.67;6.50;;;20.20;99.90;;;;;;5072794;28;20199;-79
2023/06/30 01:23:15;;;;;;;7.23;6.53;;;20.10;99.90;;;;;;5070171;28;20230;-77
2023/06/30 01:25:42;;;;;;;7.83;6.57;;;20.10;99.90;;;;;;5069815;28;20699;-79
2023/06/30 01:28:10;;;;;;;6.73;6.23;;;20.10;99.90;;;;;;5066964;28;20231;-79
2023/06/30 01:30:38;;;;;;;6.83;6.33;;;20.10;99.90;;;;;;5067450;28;20660;-79
2023/06/30 01:33:06;;;;;;;4.83;4.20;;;20.00;99.90;;;;;;5066982;28;20243;-78
2023/06/30 01:35:34;;;;;;;5.90;4.37;;;20.00;99.90;;;;;;5074686;28;20571;-76
2023/06/30 01:38:02;;;;;;;6.10;5.50;;;20.00;99.90;;;;;;5061892;28;20227;-76
2023/06/30 01:40:29;;;;;;;7.10;6.50;;;20.00;99.90;;;;;;5048412;28;20199;-75
2023/06/30 01:42:57;;;;;;;7.20;6.50;;;20.00;99.90;;;;;;5049409;28;20221;-78
2023/06/30 01:45:25;;;;;;;5.27;4.27;;;19.90;99.90;;;;;;5052413;28;20225;-79
2023/06/30 01:47:54;;;;;;;7.83;7.10;;;19.90;99.90;;;;;;5047285;28;20274;-79
2023/06/30 01:50:22;;;;;;;7.37;6.77;;;19.80;99.90;;;;;;5071688;28;20273;-79
2023/06/30 01:52:49;;;;;;;5.80;4.83;;;19.80;99.90;;;;;;5068012;28;20220;-78
2023/06/30 01:55:16;;;;;;;5.87;4.40;;;19.80;99.90;;;;;;5059793;28;20597;-77
2023/06/30 01:57:44;;;;;;;6.03;4.93;;;19.80;99.90;;;;;;5062322;28;20218;-78
2023/06/30 02:00:12;;;;;;;5.43;4.87;;;19.70;99.90;;;;;;5074362;28;20217;-78
2023/06/30 02:02:42;;;;;;;8.17;4.80;;;19.70;99.90;;;;;;5074565;28;20211;-79
2023/06/30 02:05:12;;;;;;;8.67;7.87;;;19.70;99.90;;;;;;5067057;28;20210;-79
2023/06/30 02:07:39;;;;;;;7.97;7.27;;;19.70;99.90;;;;;;5062856;28;20198;-78
2023/06/30 02:10:09;;;;;;;8.07;7.37;;;19.70;99.90;;;;;;5067913;28;20195;-78
2023/06/30 02:12:36;;;;;;;7.10;6.60;;;19.60;99.90;;;;;;5064239;28;20792;-78
2023/06/30 02:15:03;;;;;;;6.03;4.70;;;19.60;99.90;;;;;;5062105;28;20258;-77
2023/06/30 02:17:32;;;;;;;4.77;4.27;;;19.60;99.90;;;;;;5077145;28;20228;-78
2023/06/30 02:19:59;;;;;;;6.00;4.70;;;19.60;99.90;;;;;;5068745;28;20225;-76
2023/06/30 02:22:27;;;;;;;4.47;4.07;;;19.60;99.90;;;;;;5070515;28;20215;-78
2023/06/30 02:24:56;;;;;;;5.03;4.53;;;19.60;99.90;;;;;;5070189;28;20198;-77
2023/06/30 02:27:24;;;;;;;6.67;5.17;;;19.60;99.90;;;;;;5067901;28;20202;-78
2023/06/30 02:29:50;;;;;;;4.90;4.40;;;19.50;99.90;;;;;;5072128;28;20201;-78
2023/06/30 02:32:17;;;;;;;4.83;4.20;;;19.50;99.90;;;;;;5060290;28;20284;-78
2023/06/30 02:34:45;;;;;;;6.17;4.87;;;19.60;99.90;;;;;;5069523;28;20239;-77
2023/06/30 02:37:12;;;;;;;5.73;4.97;;;19.50;99.90;;;;;;5065308;28;20202;-77
2023/06/30 02:39:40;;;;;;;5.37;4.87;;;19.50;99.90;;;;;;5060005;28;20207;-77
2023/06/30 02:42:07;;;;;;;5.50;4.80;;;19.50;99.90;;;;;;5063927;28;20222;-77
2023/06/30 02:44:34;;;;;;;5.63;5.03;;;19.40;99.90;;;;;;5054814;28;20212;-77
2023/06/30 02:47:03;;;;;;;5.97;5.07;;;19.40;99.90;;;;;;5063233;28;20206;-77
2023/06/30 02:49:31;;;;;;;8.60;7.90;;;19.40;99.90;;;;;;5065373;28;20206;-79
2023/06/30 02:51:58;;;;;;;8.70;8.00;;;19.40;99.90;;;;;;5058284;28;20227;-79
2023/06/30 02:54:24;;;;;;;9.50;8.73;;;19.40;99.90;;;;;;5050413;28;20553;-78
2023/06/30 02:56:53;;;;;;;6.63;5.63;;;19.40;99.90;;;;;;5050113;28;20194;-76
2023/06/30 02:59:20;;;;;;;6.07;4.90;;;19.40;99.90;;;;;;5042313;28;20279;-78
2023/06/30 03:01:47;;;;;;;5.50;5.00;;;19.40;99.90;;;;;;5050572;28;20219;-77
2023/06/30 03:04:14;;;;;;;7.70;5.70;;;19.40;99.90;;;;;;5045770;28;20207;-78
2023/06/30 03:06:41;;;;;;;5.93;4.80;;;19.40;99.90;;;;;;5045011;28;20205;-78
2023/06/30 03:09:09;;;;;;;6.03;5.33;;;19.40;99.90;;;;;;5061803;28;20191;-78
2023/06/30 03:11:37;;;;;;;6.10;4.50;;;19.30;99.90;;;;;;5053562;28;20280;-78
2023/06/30 03:14:05;;;;;;;5.77;5.03;;;19.30;99.90;;;;;;5044451;28;20210;-78
2023/06/30 03:16:40;;;;;;;6.60;5.27;;;19.20;99.90;;;;;;5047782;28;20290;-78
2023/06/30 03:19:07;;;;;;;6.67;5.30;;;19.20;99.90;;;;;;5060014;28;20206;-78
2023/06/30 03:21:34;;;;;;;5.53;4.90;;;19.20;99.90;;;;;;5052968;28;20249;-78
2023/06/30 03:24:01;;;;;;;8.20;7.50;;;19.20;99.90;;;;;;5056480;28;20200;-77
2023/06/30 03:26:29;;;;;;;7.23;5.40;;;19.10;99.90;;;;;;5053591;28;20194;-76
2023/06/30 03:28:55;;;;;;;7.23;5.17;;;19.10;99.90;;;;;;5054476;28;20218;-79
2023/06/30 03:31:24;;;;;;;5.33;4.83;;;19.20;99.90;;;;;;5060592;28;20198;-77
2023/06/30 03:33:51;;;;;;;6.50;5.13;;;19.10;99.90;;;;;;5062291;28;20583;-75
2023/06/30 03:36:18;;;;;;;7.83;5.67;;;19.20;99.90;;;;;;5067176;28;20628;-76
2023/06/30 03:38:46;;;;;;;5.67;4.87;;;19.20;99.90;;;;;;5058580;28;20204;-76
2023/06/30 03:41:14;;;;;;;6.63;5.23;;;19.20;99.90;;;;;;5058322;28;20253;-75
2023/06/30 03:43:40;;;;;;;6.60;5.63;;;19.20;99.90;;;;;;5062282;28;20658;-76
2023/06/30 03:46:09;;;;;;;5.47;4.97;;;19.20;99.90;;;;;;5048401;28;20833;-75
2023/06/30 03:48:37;;;;;;;7.67;4.80;;;19.30;99.90;;;;;;5054109;28;20202;-75
2023/06/30 03:51:04;;;;;;;6.23;4.77;;;19.30;99.90;;;;;;5062084;28;20212;-76
2023/06/30 03:53:31;;;;;;;5.63;5.10;;;19.40;99.90;;;;;;5050375;28;20701;-76
2023/06/30 03:55:58;;;;;;;6.80;5.03;;;19.50;99.90;;;;;;5058790;28;20213;-75
2023/06/30 03:58:27;;;;;;;7.70;7.00;;;19.40;99.90;;;;;;5059375;28;20203;-75
2023/06/30 04:00:54;;;;;;;6.17;5.20;;;19.50;99.90;;;;;;5053252;28;20209;-75
2023/06/30 04:03:21;;;;;;;5.90;4.90;;;19.50;99.90;;;;;;5067939;28;20595;-75
2023/06/30 04:05:49;;;;;;;5.10;4.60;;;19.50;99.90;;;;;;5051556;28;20220;-74
2023/06/30 04:08:16;;;;;;;7.03;5.27;;;19.50;99.90;;;;;;5047373;28;20314;-75
2023/06/30 04:10:43;;;;;;;5.20;4.70;;;19.50;99.90;;;;;;5059819;28;20663;-75
2023/06/30 04:13:10;;;;;;;5.20;4.70;;;19.50;99.90;;;;;;5055784;28;20219;-74
2023/06/30 04:15:37;;;;;;;6.83;5.10;;;19.50;99.90;;;;;;5053561;28;20237;-76
2023/06/30 04:18:04;;;;;;;6.93;6.33;;;19.60;99.90;;;;;;5045392;28;20200;-77
2023/06/30 04:20:31;;;;;;;7.30;6.60;;;19.60;99.90;;;;;;5059147;28;20249;-76
2023/06/30 04:22:59;;;;;;;8.63;7.27;;;19.60;99.90;;;;;;5056070;28;20700;-75
2023/06/30 04:25:26;;;;;;;7.07;6.47;;;19.60;99.90;;;;;;5044593;28;20209;-76
2023/06/30 04:27:53;;;;;;;6.53;5.73;;;19.60;99.90;;;;;;5049435;28;20206;-76
2023/06/30 04:30:20;;;;;;;7.53;6.80;;;19.60;99.90;;;;;;5059613;28;20233;-76
2023/06/30 04:32:47;;;;;;;8.20;7.50;;;19.70;99.90;;;;;;5055358;28;20225;-76
2023/06/30 04:35:15;;;;;;;6.10;5.30;;;19.70;99.90;;;;;;5053102;28;20202;-75
2023/06/30 04:37:42;;;;;;;6.00;5.33;;;19.70;99.90;;;;;;5052065;28;20195;-75
2023/06/30 04:40:11;;;;;;;6.73;5.50;;;19.70;99.90;;;;;;5059080;28;20230;-76
2023/06/30 04:42:38;;;;;;;6.00;5.37;;;19.70;99.90;;;;;;5049530;28;20216;-77
2023/06/30 04:45:06;;;;;;;8.57;7.20;;;19.80;99.90;;;;;;5062368;28;20190;-76
2023/06/30 04:47:33;;;;;;;11.43;7.73;;;19.80;99.90;;;;;;5062490;28;20210;-76
2023/06/30 04:49:59;;;;;;;12.10;9.10;;;19.80;99.90;;;;;;5054140;28;20195;-77
2023/06/30 04:52:26;;;;;;;14.63;9.07;;;19.90;99.90;;;;;;5064451;28;20230;-76
2023/06/30 04:54:54;;;;;;;13.03;11.70;;;19.90;99.90;;;;;;5057264;28;20199;-75
2023/06/30 04:57:23;;;;;;;16.47;12.83;;;19.90;99.90;;;;;;5065573;28;20206;-75
2023/06/30 04:59:51;;;;;;;16.87;12.77;;;19.80;99.90;;;;;;5056696;28;20198;-75
2023/06/30 05:02:18;;;;;;;14.13;11.47;;;19.70;99.90;;;;;;5050184;28;20214;-76
2023/06/30 05:04:45;;;;;;;14.10;12.70;;;19.50;99.90;;;;;;5058133;28;20285;-75
2023/06/30 05:07:12;;;;;;;15.57;13.73;;;19.50;99.90;;;;;;5052877;28;20229;-74
2023/06/30 05:09:38;;;;;;;17.60;12.53;;;19.40;99.90;;;;;;5060293;28;20206;-75
2023/06/30 05:12:06;;;;;;;14.83;10.73;;;19.30;99.90;;;;;;5058850;28;20845;-75
2023/06/30 05:14:34;;;;;;;12.10;10.23;;;19.20;99.90;;;;;;5064045;28;20198;-74
2023/06/30 05:17:01;;;;;;;11.57;9.97;;;19.20;99.90;;;;;;5061793;28;20202;-74
2023/06/30 05:19:28;;;;;;;13.17;9.47;;;19.10;99.90;;;;;;5061490;28;20201;-74
2023/06/30 05:21:54;;;;;;;11.10;9.23;;;19.10;99.90;;;;;;5057338;28;20302;-78
2023/06/30 05:24:21;;;;;;;11.67;9.63;;;19.10;99.90;;;;;;5054952;28;20236;-77
2023/06/30 05:26:48;;;;;;;10.10;8.90;;;19.10;99.90;;;;;;5063790;28;20229;-78
2023/06/30 05:29:15;;;;;;;11.03;8.50;;;19.10;99.90;;;;;;5059928;28;20238;-79
2023/06/30 05:31:43;;;;;;;9.40;8.40;;;19.00;99.90;;;;;;5051721;28;20223;-78
2023/06/30 05:34:15;;;;;;;11.47;8.37;;;18.90;99.90;;;;;;5070497;28;20218;-78
2023/06/30 05:36:43;;;;;;;12.23;8.37;;;18.90;99.90;;;;;;5058709;28;20201;-78
2023/06/30 05:39:10;;;;;;;12.00;9.07;;;18.80;99.90;;;;;;5055688;28;20198;-78
2023/06/30 05:41:37;;;;;;;10.80;9.70;;;18.70;99.90;;;;;;5050149;28;20233;-80
2023/06/30 05:44:06;;;;;;;13.53;12.23;;;18.70;99.90;;;;;;5050996;28;20260;-78
2023/06/30 05:46:33;;;;;;;11.07;9.17;;;18.60;99.90;;;;;;5058155;28;20198;-79
2023/06/30 05:49:05;;;;;;;10.20;8.63;;;18.60;99.90;;;;;;5060666;28;20205;-78
2023/06/30 05:51:32;;;;;;;12.03;9.67;;;18.60;99.90;;;;;;5058523;28;20242;-78
2023/06/30 05:53:59;;;;;;;15.70;14.30;;;18.60;99.90;;;;;;5068704;28;20215;-77
2023/06/30 05:56:25;;;;;;;15.60;13.90;;;18.60;99.90;;;;;;5071215;28;20207;-78
2023/06/30 05:58:52;;;;;;;14.30;12.90;;;18.50;99.90;;;;;;5064900;28;20213;-77
2023/06/30 06:01:20;;;;;;;14.30;12.90;;;18.50;99.90;;;;;;5054594;28;20259;-77
2023/06/30 06:03:47;;;;;;;14.17;12.93;;;18.40;99.90;;;;;;5049484;28;20254;-79
2023/06/30 06:06:15;;;;;;;14.00;12.70;;;18.40;99.90;;;;;;5060313;28;20200;-78
2023/06/30 06:08:44;;;;;;;9.47;8.37;;;18.50;99.90;;;;;;5066355;28;20229;-78
2023/06/30 06:11:11;;;;;;;9.70;8.27;;;18.60;99.90;;;;;;5056151;28;20203;-78
2023/06/30 06:13:39;;;;;;;10.63;8.77;;;18.70;99.90;;;;;;5065365;28;20786;-78
2023/06/30 06:16:07;;;;;;;11.40;8.53;;;18.70;99.90;;;;;;5070584;28;20202;-78
2023/06/30 06:18:34;;;;;;;13.20;11.93;;;18.80;99.90;;;;;;5047378;28;20241;-78
2023/06/30 06:21:03;;;;;;;13.90;12.57;;;18.80;99.90;;;;;;5066126;28;20202;-78
2023/06/30 06:23:32;;;;;;;12.93;11.63;;;18.90;99.90;;;;;;5046463;28;20232;-79
2023/06/30 06:25:59;;;;;;;11.40;9.47;;;19.00;99.90;;;;;;5065497;28;20193;-78
2023/06/30 06:28:25;;;;;;;12.03;10.47;;;18.90;99.90;;;;;;5064628;28;20203;-79
2023/06/30 06:30:52;;;;;;;13.20;9.80;;;18.90;99.90;;;;;;5066300;28;20195;-78
2023/06/30 06:33:20;;;;;;;13.53;12.20;;;19.00;99.90;;;;;;5053678;28;20226;-78
2023/06/30 06:35:47;;;;;;;9.40;8.47;;;19.00;99.90;;;;;;5059578;28;20224;-78
2023/06/30 06:38:17;;;;;;;11.73;8.80;;;19.10;99.90;;;;;;5068694;28;20218;-78
2023/06/30 06:40:45;;;;;;;10.70;9.60;;;19.10;99.90;;;;;;5064630;28;20200;-78
2023/06/30 06:43:12;;;;;;;9.30;8.17;;;19.20;99.90;;;;;;5062783;28;20235;-78
2023/06/30 06:45:42;;;;;;;10.30;9.30;;;19.30;99.90;;;;;;5067630;28;20210;-78
2023/06/30 06:48:23;;;;;;;10.50;8.63;;;19.30;99.90;;;;;;5067985;28;20724;-78
2023/06/30 06:50:51;;;;;;;10.13;9.07;;;19.50;99.90;;;;;;5061887;28;20863;-78
2023/06/30 06:53:20;;;;;;;12.40;11.20;;;19.50;99.90;;;;;;5071381;28;20226;-78
2023/06/30 06:55:49;;;;;;;9.63;8.50;;;19.60;99.90;;;;;;5056753;28;21310;-78
2023/06/30 06:58:16;;;;;;;14.23;12.50;;;19.50;99.90;;;;;;5048444;28;20238;-79
2023/06/30 07:00:45;;;;;;;11.67;9.53;;;19.50;99.90;;;;;;5058068;28;20207;-78
2023/06/30 07:03:12;;;;;;;10.67;8.80;;;19.40;99.90;;;;;;5060225;28;20212;-78
2023/06/30 07:05:39;;;;;;;10.80;9.57;;;19.40;99.90;;;;;;5074014;28;20222;-78
2023/06/30 07:08:06;;;;;;;11.17;8.60;;;19.30;99.90;;;;;;5067482;28;20567;-77
2023/06/30 07:10:34;;;;;;;8.57;7.67;;;19.20;99.90;;;;;;5058725;28;20205;-78
2023/06/30 07:13:02;;;;;;;9.47;8.03;;;19.30;99.90;;;;;;5061131;28;20209;-78
2023/06/30 07:15:29;;;;;;;13.60;9.00;;;19.20;99.90;;;;;;5060431;28;20651;-78
2023/06/30 07:17:57;;;;;;;9.93;8.30;;;19.20;99.90;;;;;;5062445;28;20222;-78
2023/06/30 07:20:24;;;;;;;11.10;8.80;;;19.20;99.90;;;;;;5064607;28;20283;-78
2023/06/30 07:22:51;;;;;;;11.07;9.20;;;19.20;99.90;;;;;;5069769;28;20214;-78
2023/06/30 07:25:18;;;;;;;12.20;9.53;;;19.20;99.90;;;;;;5068148;28;20218;-78
2023/06/30 07:27:52;;;;;;;10.93;9.10;;;19.20;99.90;;;;;;5062948;28;20195;-79
2023/06/30 07:30:21;;;;;;;12.20;9.47;;;19.30;99.90;;;;;;5061270;28;20217;-78
2023/06/30 07:32:49;;;;;;;11.00;9.30;;;19.20;99.90;;;;;;5054127;28;20218;-78
2023/06/30 07:35:16;;;;;;;11.10;9.67;;;19.30;99.90;;;;;;5043944;28;20203;-79
2023/06/30 07:37:43;;;;;;;10.70;9.27;;;19.30;99.90;;;;;;5049957;28;20229;-78
2023/06/30 07:40:11;;;;;;;11.70;9.47;;;19.40;99.90;;;;;;5055829;28;20951;-78
2023/06/30 07:42:39;;;;;;;11.63;10.43;;;19.40;99.90;;;;;;5052404;28;20588;-78
2023/06/30 07:45:08;;;;;;;13.43;12.13;;;19.50;99.90;;;;;;5043911;28;20198;-78
2023/06/30 07:47:36;;;;;;;13.13;11.90;;;19.50;99.90;;;;;;5041948;28;20289;-77
2023/06/30 07:50:03;;;;;;;12.80;10.77;;;19.60;99.90;;;;;;5048948;28;20665;-76
2023/06/30 07:52:30;;;;;;;12.20;9.93;;;19.60;99.90;;;;;;5045060;28;20277;-76
2023/06/30 07:54:57;;;;;;;15.53;14.03;;;19.70;99.90;;;;;;5050977;28;20220;-79
2023/06/30 07:57:27;;;;;;;10.77;9.17;;;19.70;99.90;;;;;;5042429;28;20764;-76
2023/06/30 07:59:54;;;;;;;11.90;10.20;;;19.80;99.90;;;;;;5046949;28;20199;-78
2023/06/30 08:02:20;;;;;;;13.73;12.33;;;19.90;99.90;;;;;;5051970;28;20223;-77
2023/06/30 08:04:49;;;;;;;13.97;12.60;;;20.00;99.90;;;;;;5049947;28;20272;-78
2023/06/30 08:07:16;;;;;;;14.63;11.17;;;20.20;99.90;;;;;;5048474;28;20204;-79
2023/06/30 08:09:43;;;;;;;12.43;10.97;;;20.40;99.90;;;;;;5047796;28;20253;-78
2023/06/30 08:12:10;;;;;;;14.37;12.87;;;20.60;99.90;;;;;;5042456;28;20648;-78
2023/06/30 08:14:37;;;;;;;15.27;13.77;;;20.70;99.90;;;;;;5054905;28;20223;-78
2023/06/30 08:17:04;;;;;;;15.67;14.10;;;20.90;99.90;;;;;;5056087;28;20256;-78
2023/06/30 08:19:31;;;;;;;14.70;13.30;;;21.00;99.90;;;;;;5050048;28;20256;-78
2023/06/30 08:22:01;;;;;;;13.47;12.17;;;21.10;99.90;;;;;;5056378;28;20290;-78
2023/06/30 08:24:28;;;;;;;16.67;15.17;;;21.20;99.90;;;;;;5064288;28;20224;-79
2023/06/30 08:26:54;;;;;;;13.80;12.43;;;21.30;99.90;;;;;;5069471;28;20208;-78
2023/06/30 08:29:21;;;;;;;14.90;13.50;;;21.40;99.90;;;;;;5070295;28;20195;-79
2023/06/30 08:31:48;;;;;;;16.30;14.70;;;21.50;99.90;;;;;;5067101;28;20218;-79
2023/06/30 08:34:15;;;;;;;15.60;11.87;;;21.60;99.90;;;;;;5060442;28;20214;-78
2023/06/30 08:36:41;;;;;;;13.97;11.83;;;21.50;99.90;;;;;;5059400;28;20187;-78
2023/06/30 08:39:11;;;;;;;14.27;12.00;;;21.40;99.90;;;;;;5063278;28;20196;-79
2023/06/30 08:41:39;;;;;;;15.33;12.77;;;21.40;99.90;;;;;;5056671;28;20214;-78
2023/06/30 08:44:06;;;;;;;17.27;14.57;;;21.40;99.90;;;;;;5066498;28;20249;-78
2023/06/30 08:46:34;;;;;;;16.00;13.60;;;21.50;99.90;;;;;;5070969;28;20669;-78
2023/06/30 08:49:01;;;;;;;14.33;12.60;;;21.70;99.90;;;;;;5064012;28;20256;-78
2023/06/30 08:51:28;;;;;;;15.93;14.23;;;21.80;99.90;;;;;;5056293;28;20206;-78
2023/06/30 08:53:55;;;;;;;17.13;15.37;;;22.00;99.90;;;;;;5052110;28;20210;-78
2023/06/30 08:56:25;;;;;;;16.40;13.03;;;22.40;99.90;;;;;;5064733;28;20226;-78
2023/06/30 08:58:52;;;;;;;15.47;13.63;;;23.00;99.90;;;;;;5062167;28;20195;-79
2023/06/30 09:01:20;;;;;;;18.20;14.70;;;23.70;99.90;;;;;;5061593;28;20211;-79
2023/06/30 09:03:47;;;;;;;18.63;16.83;;;23.70;99.90;;;;;;5069043;28;20671;-78
2023/06/30 09:06:14;;;;;;;18.93;16.97;;;23.80;99.90;;;;;;5072638;28;20195;-79
2023/06/30 09:08:48;;;;;;;17.53;15.70;;;23.50;99.90;;;;;;5064518;28;20190;-79
2023/06/30 09:11:17;;;;;;;17.83;16.13;;;23.30;99.90;;;;;;5068051;28;20195;-79
2023/06/30 09:13:47;;;;;;;16.83;15.13;;;23.00;99.90;;;;;;5069905;28;20248;-79
2023/06/30 09:16:17;;;;;;;14.40;12.10;;;22.80;99.90;;;;;;5067515;28;20252;-79
2023/06/30 09:18:46;;;;;;;13.83;11.23;;;22.70;99.90;;;;;;5070687;28;20202;-78
2023/06/30 09:21:14;;;;;;;13.83;11.43;;;22.50;99.90;;;;;;5061796;28;20198;-78
2023/06/30 09:23:42;;;;;;;14.27;10.70;;;22.50;99.90;;;;;;5048709;28;20203;-80
2023/06/30 09:26:13;;;;;;;13.60;12.20;;;22.40;99.90;;;;;;5049065;28;20597;-79
2023/06/30 09:28:41;;;;;;;12.13;10.73;;;22.20;99.90;;;;;;5050460;28;20200;-78
2023/06/30 09:31:10;;;;;;;12.30;10.63;;;22.00;99.90;;;;;;5053655;28;20225;-78
2023/06/30 09:33:39;;;;;;;13.47;11.43;;;21.80;99.90;;;;;;5054747;28;20708;-78
2023/06/30 09:36:06;;;;;;;14.03;10.70;;;21.70;99.90;;;;;;5051844;28;20191;-78
2023/06/30 09:38:35;;;;;;;16.03;14.30;;;21.50;99.90;;;;;;5063512;28;20196;-78
2023/06/30 09:41:04;;;;;;;15.27;12.73;;;21.30;99.90;;;;;;5059383;28;20592;-78
2023/06/30 09:43:32;;;;;;;13.43;11.67;;;21.10;99.90;;;;;;5048853;28;20222;-78
2023/06/30 09:46:00;;;;;;;12.87;10.70;;;21.00;99.90;;;;;;5051774;28;20196;-78
2023/06/30 09:48:33;;;;;;;12.83;10.33;;;20.90;99.90;;;;;;5048153;28;20611;-78
2023/06/30 09:51:00;;;;;;;11.47;10.27;;;20.90;99.90;;;;;;5048243;28;20663;-79
2023/06/30 09:53:29;;;;;;;10.60;9.50;;;20.90;99.90;;;;;;5054225;28;20251;-78
2023/06/30 09:55:55;;;;;;;12.93;10.83;;;21.00;99.90;;;;;;5056005;28;20207;-79
2023/06/30 09:58:22;;;;;;;12.57;10.40;;;21.00;99.90;;;;;;5057347;28;20268;-79
2023/06/30 10:00:52;;;;;;;13.97;10.87;;;21.00;99.90;;;;;;5054080;28;20199;-78
2023/06/30 10:03:19;;;;;;;12.90;10.43;;;20.90;99.90;;;;;;5043962;28;20278;-79
2023/06/30 10:05:48;;;;;;;13.97;12.67;;;20.80;99.90;;;;;;5050544;28;20195;-78
2023/06/30 10:08:16;;;;;;;11.33;9.40;;;20.80;99.90;;;;;;5052658;28;20204;-78
2023/06/30 10:10:43;;;;;;;15.70;14.20;;;20.70;99.90;;;;;;5049743;28;20223;-79
2023/06/30 10:13:12;;;;;;;14.83;12.97;;;20.70;99.90;;;;;;5047358;28;20215;-77
2023/06/30 10:15:39;;;;;;;11.87;9.77;;;20.70;99.90;;;;;;5042964;28;20242;-79
2023/06/30 10:18:10;;;;;;;15.07;13.47;;;20.70;99.90;;;;;;5047378;28;20637;-79
2023/06/30 10:20:36;;;;;;;15.43;13.93;;;20.60;99.90;;;;;;5043725;28;20219;-78
2023/06/30 10:23:05;;;;;;;16.03;14.50;;;20.60;99.90;;;;;;5049779;28;20215;-78
2023/06/30 10:25:37;;;;;;;15.73;14.23;;;20.50;99.90;;;;;;5053841;28;20218;-79
2023/06/30 10:28:06;;;;;;;17.60;16.00;;;20.50;99.90;;;;;;5051425;28;20205;-79
2023/06/30 10:30:33;;;;;;;16.67;15.30;;;20.50;99.90;;;;;;5051930;28;20698;-79
2023/06/30 10:33:00;;;;;;;18.57;16.87;;;20.50;99.90;;;;;;5052301;28;20207;-79
2023/06/30 10:35:27;;;;;;;17.73;16.13;;;20.40;99.90;;;;;;5048529;28;20664;-79
2023/06/30 10:37:55;;;;;;;18.33;16.63;;;20.40;99.90;;;;;;5052031;28;20257;-79
2023/06/30 10:40:26;;;;;;;18.77;17.13;;;20.40;99.90;;;;;;5048545;28;20195;-79
2023/06/30 10:42:55;;;;;;;15.93;13.57;;;20.30;99.90;;;;;;5053644;28;20227;-78
2023/06/30 10:45:27;;;;;;;15.20;13.60;;;20.30;99.90;;;;;;5054225;28;20184;-79
2023/06/30 10:47:54;;;;;;;19.73;17.87;;;20.20;99.90;;;;;;5049576;28;20200;-79
2023/06/30 10:50:21;;;;;;;19.40;17.60;;;20.10;99.90;;;;;;5047520;28;20655;-78
2023/06/30 10:52:52;;;;;;;21.37;19.57;;;20.00;99.90;;;;;;5056489;28;20230;-78
2023/06/30 10:55:23;;;;;;;18.97;17.33;;;20.00;99.90;;;;;;5045887;28;20278;-79
2023/06/30 10:57:53;;;;;;;17.93;16.23;;;20.20;99.90;;;;;;5049909;28;20196;-79
2023/06/30 11:00:22;;;;;;;17.50;15.90;;;20.40;99.90;;;;;;5053070;28;20209;-79
2023/06/30 11:02:50;;;;;;;18.20;16.60;;;20.40;99.90;;;;;;5054950;28;20219;-78
2023/06/30 11:05:24;;;;;;;16.47;14.97;;;20.60;99.90;;;;;;5046978;28;20207;-79
2023/06/30 11:07:53;;;;;;;15.97;14.47;;;20.60;99.90;;;;;;5041466;28;20207;-78
2023/06/30 11:10:27;;;;;;;12.13;10.53;;;20.70;99.90;;;;;;5064770;28;20719;-79
2023/06/30 11:12:57;;;;;;;12.43;11.27;;;20.80;99.90;;;;;;5064889;28;20241;-79
2023/06/30 11:15:36;;;;;;;12.57;10.43;;;21.10;99.90;;;;;;5061497;28;20218;-79
2023/06/30 11:18:05;;;;;;;13.32;11.90;;;21.30;99.90;;;;;;5066550;28;20091;-79
2023/06/30 11:20:33;;;;;;;14.60;13.20;;;21.50;99.90;;;;;;5066668;28;20527;-78
2023/06/30 11:23:01;;;;;;;15.20;13.90;;;21.70;99.90;;;;;;5065481;28;20659;-79
2023/06/30 11:25:29;;;;;;;15.23;10.40;;;21.70;99.90;;;;;;5062379;28;20207;-78
2023/06/30 11:27:59;;;;;;;11.40;10.20;;;21.80;99.90;;;;;;5062651;28;21037;-78
2023/06/30 11:30:27;;;;;;;14.23;12.73;;;21.80;99.90;;;;;;5064410;28;20195;-78
2023/06/30 11:32:59;;;;;;;13.10;10.57;;;21.80;99.90;;;;;;5071250;28;20628;-79
2023/06/30 11:35:28;;;;;;;11.83;10.20;;;21.70;99.90;;;;;;5073278;28;20629;-78
2023/06/30 11:37:55;;;;;;;12.47;10.37;;;21.80;99.90;;;;;;5069672;28;20194;-78
2023/06/30 11:40:22;;;;;;;13.53;12.13;;;21.70;99.90;;;;;;5061586;28;20606;-79
2023/06/30 11:42:50;;;;;;;13.23;11.70;;;21.60;99.90;;;;;;5059722;28;20214;-77
2023/06/30 11:45:20;;;;;;;13.63;12.33;;;21.50;99.90;;;;;;5070892;28;20198;-79
2023/06/30 11:47:51;;;;;;;11.60;10.30;;;21.50;99.90;;;;;;5065722;28;20226;-79
2023/06/30 11:50:18;;;;;;;13.30;9.37;;;21.50;99.90;;;;;;5063764;28;20660;-78
2023/06/30 11:52:47;;;;;;;11.93;10.03;;;21.60;99.90;;;;;;5071313;28;20642;-78
2023/06/30 11:55:15;;;;;;;11.67;10.07;;;21.70;99.90;;;;;;5069629;28;20202;-79
2023/06/30 11:57:46;;;;;;;13.67;11.27;;;21.80;99.90;;;;;;5067911;28;20213;-79
2023/06/30 12:00:16;;;;;;;13.80;11.57;;;22.00;99.90;;;;;;5059120;28;20225;-79
2023/06/30 12:02:59;;;;;;;15.47;14.03;;;21.90;99.90;;;;;;5063460;28;20305;-79
2023/06/30 12:05:28;;;;;;;17.13;15.53;;;22.10;99.90;;;;;;5062413;28;20196;-79
2023/06/30 12:07:56;;;;;;;15.50;14.10;;;22.10;99.90;;;;;;5064000;28;20425;-79
2023/06/30 12:10:34;;;;;;;12.40;10.73;;;22.20;99.90;;;;;;5059539;28;20271;-79
2023/06/30 12:13:01;;;;;;;15.43;13.95;;;22.40;99.90;;;;;;5060410;28;20445;-79
2023/06/30 12:15:31;;;;;;;14.63;13.32;;;22.40;99.90;;;;;;5055369;28;20447;-77
2023/06/30 12:18:04;;;;;;;13.60;12.17;;;22.40;99.90;;;;;;5065183;28;20201;-79
2023/06/30 12:20:36;;;;;;;14.17;12.27;;;22.40;99.90;;;;;;5073033;28;20630;-80
2023/06/30 12:23:04;;;;;;;12.07;10.20;;;22.40;99.90;;;;;;5071875;28;20220;-79
2023/06/30 12:25:33;;;;;;;13.80;12.40;;;22.40;99.90;;;;;;5060440;28;20198;-79
2023/06/30 12:28:02;;;;;;;12.97;9.80;;;22.50;99.90;;;;;;5058812;28;20211;-79
2023/06/30 12:30:29;;;;;;;12.43;10.33;;;22.50;99.90;;;;;;5067334;28;20211;-79
2023/06/30 12:32:57;;;;;;;13.13;11.73;;;22.50;99.90;;;;;;5058485;28;20243;-80
2023/06/30 12:35:30;;;;;;;13.00;10.17;;;22.40;99.90;;;;;;5070771;28;20222;-80
2023/06/30 12:37:57;;;;;;;12.57;10.33;;;22.30;99.90;;;;;;5063849;28;20665;-81
2023/06/30 12:40:27;;;;;;;12.47;10.70;;;22.40;99.90;;;;;;5063411;28;20295;-77